sensor_id;sensor_type;location;lat;lon;timestamp;temperature;humidity
27896;DHT22;15241;48.374;10.876;2023-03-01T00:00:14;3.60;99.90
27896;DHT22;15241;48.374;10.876;2023-03-01T00:05:12;3.60;99.90
27896;DHT22;15241;48.374;10.876;2023-03-01T00:10:12;3.60;99.90
27896;DHT22;15241;48.374;10.876;2023-03-01T00:15:11;3.60;99.90
27896;DHT22;15241;48.374;10.876;2023-03-01T00:20:12;3.70;99.90
27896;DHT22;15241;48.374;10.876;2023-03-01T00:25:11;3.70;99.90
27896;DHT22;15241;48.374;10.876;2023-03-01T00:30:11;3.70;99.90
27896;DHT22;15241;48.374;10.876;2023-03-01T00:35:10;3.60;99.90
27896;DHT22;15241;48.374;10.876;2023-03-01T00:40:12;3.50;99.90
27896;DHT22;15241;48.374;10.876;2023-03-01T00:45:11;3.50;99.90
27896;DHT22;15241;48.374;10.876;2023-03-01T00:50:11;3.50;99.90
27896;DHT22;15241;48.374;10.876;2023-03-01T00:55:11;3.50;99.90
27896;DHT22;15241;48.374;10.876;2023-03-01T01:00:13;3.50;99.90
27896;DHT22;15241;48.374;10.876;2023-03-01T01:05:12;3.50;99.90
27896;DHT22;15241;48.374;10.876;2023-03-01T01:10:12;3.50;99.90
27896;DHT22;15241;48.374;10.876;2023-03-01T01:15:11;3.60;99.90
27896;DHT22;15241;48.374;10.876;2023-03-01T01:20:12;3.60;99.90
27896;DHT22;15241;48.374;10.876;2023-03-01T01:25:11;3.60;99.90
27896;DHT22;15241;48.374;10.876;2023-03-01T01:30:13;3.50;99.90
27896;DHT22;15241;48.374;10.876;2023-03-01T01:35:12;3.60;99.90
27896;DHT22;15241;48.374;10.876;2023-03-01T01:40:13;3.60;99.90
27896;DHT22;15241;48.374;10.876;2023-03-01T01:45:31;3.60;99.90
27896;DHT22;15241;48.374;10.876;2023-03-01T01:50:31;3.50;99.90
27896;DHT22;15241;48.374;10.876;2023-03-01T01:55:30;3.40;99.90
27896;DHT22;15241;48.374;10.876;2023-03-01T02:00:30;3.40;99.90
27896;DHT22;15241;48.374;10.876;2023-03-01T02:05:34;3.40;99.90
27896;DHT22;15241;48.374;10.876;2023-03-01T02:10:35;3.30;99.90
27896;DHT22;15241;48.374;10.876;2023-03-01T02:15:36;3.30;99.90
27896;DHT22;15241;48.374;10.876;2023-03-01T02:20:39;3.30;99.90
27896;DHT22;15241;48.374;10.876;2023-03-01T02:25:44;3.30;99.90
27896;DHT22;15241;48.374;10.876;2023-03-01T02:30:43;3.30;99.90
27896;DHT22;15241;48.374;10.876;2023-03-01T02:35:42;3.20;99.90
27896;DHT22;15241;48.374;10.876;2023-03-01T02:40:41;3.20;99.90
27896;DHT22;15241;48.374;10.876;2023-03-01T02:45:48;3.20;99.90
27896;DHT22;15241;48.374;10.876;2023-03-01T02:50:55;3.10;99.90
27896;DHT22;15241;48.374;10.876;2023-03-01T02:55:53;3.10;99.90
27896;DHT22;15241;48.374;10.876;2023-03-01T03:00:52;3.10;99.90
27896;DHT22;15241;48.374;10.876;2023-03-01T03:05:51;3.00;99.90
27896;DHT22;15241;48.374;10.876;2023-03-01T03:10:50;3.00;99.90
27896;DHT22;15241;48.374;10.876;2023-03-01T03:15:49;2.90;99.90
27896;DHT22;15241;48.374;10.876;2023-03-01T03:20:48;2.90;99.90
27896;DHT22;15241;48.374;10.876;2023-03-01T03:25:49;2.90;99.90
27896;DHT22;15241;48.374;10.876;2023-03-01T03:36:24;2.80;99.90
27896;DHT22;15241;48.374;10.876;2023-03-01T03:41:23;2.90;99.90
27896;DHT22;15241;48.374;10.876;2023-03-01T03:46:22;2.80;99.90
27896;DHT22;15241;48.374;10.876;2023-03-01T03:51:21;2.90;99.90
27896;DHT22;15241;48.374;10.876;2023-03-01T03:56:20;2.90;99.90
27896;DHT22;15241;48.374;10.876;2023-03-01T04:01:19;2.90;99.90
27896;DHT22;15241;48.374;10.876;2023-03-01T04:06:18;2.80;99.90
27896;DHT22;15241;48.374;10.876;2023-03-01T04:11:17;2.80;99.90
27896;DHT22;15241;48.374;10.876;2023-03-01T04:16:18;2.80;99.90
27896;DHT22;15241;48.374;10.876;2023-03-01T04:21:17;2.80;99.90
27896;DHT22;15241;48.374;10.876;2023-03-01T04:26:16;2.80;99.90
27896;DHT22;15241;48.374;10.876;2023-03-01T04:31:17;2.80;99.90
27896;DHT22;15241;48.374;10.876;2023-03-01T04:36:17;2.80;99.90
27896;DHT22;15241;48.374;10.876;2023-03-01T04:41:18;2.80;99.90
27896;DHT22;15241;48.374;10.876;2023-03-01T04:46:19;2.70;99.90
27896;DHT22;15241;48.374;10.876;2023-03-01T04:51:18;2.70;99.90
27896;DHT22;15241;48.374;10.876;2023-03-01T04:56:18;2.60;99.90
27896;DHT22;15241;48.374;10.876;2023-03-01T05:01:18;2.60;99.90
27896;DHT22;15241;48.374;10.876;2023-03-01T05:06:19;2.50;99.90
27896;DHT22;15241;48.374;10.876;2023-03-01T05:11:18;2.50;99.90
27896;DHT22;15241;48.374;10.876;2023-03-01T05:16:17;2.50;99.90
27896;DHT22;15241;48.374;10.876;2023-03-01T05:21:16;2.40;99.90
27896;DHT22;15241;48.374;10.876;2023-03-01T05:26:16;2.30;99.90
27896;DHT22;15241;48.374;10.876;2023-03-01T05:36:27;2.10;99.90
27896;DHT22;15241;48.374;10.876;2023-03-01T05:41:26;1.90;99.90
27896;DHT22;15241;48.374;10.876;2023-03-01T05:46:25;1.80;99.90
27896;DHT22;15241;48.374;10.876;2023-03-01T05:51:24;1.70;99.90
27896;DHT22;15241;48.374;10.876;2023-03-01T05:56:23;1.70;99.90
27896;DHT22;15241;48.374;10.876;2023-03-01T06:01:22;1.60;99.90
27896;DHT22;15241;48.374;10.876;2023-03-01T06:06:21;1.50;99.90
27896;DHT22;15241;48.374;10.876;2023-03-01T06:11:20;1.50;99.90
27896;DHT22;15241;48.374;10.876;2023-03-01T06:16:19;1.40;99.90
27896;DHT22;15241;48.374;10.876;2023-03-01T06:21:18;1.40;99.90
27896;DHT22;15241;48.374;10.876;2023-03-01T06:26:17;1.30;99.90
27896;DHT22;15241;48.374;10.876;2023-03-01T06:31:16;1.40;99.90
27896;DHT22;15241;48.374;10.876;2023-03-01T06:36:18;1.30;99.90
27896;DHT22;15241;48.374;10.876;2023-03-01T06:41:17;1.30;99.90
27896;DHT22;15241;48.374;10.876;2023-03-01T06:46:16;1.30;99.90
27896;DHT22;15241;48.374;10.876;2023-03-01T06:51:15;1.40;99.90
27896;DHT22;15241;48.374;10.876;2023-03-01T06:56:14;1.60;99.90
27896;DHT22;15241;48.374;10.876;2023-03-01T07:01:13;1.70;99.90
27896;DHT22;15241;48.374;10.876;2023-03-01T07:06:12;1.80;99.90
27896;DHT22;15241;48.374;10.876;2023-03-01T07:11:11;1.90;99.90
27896;DHT22;15241;48.374;10.876;2023-03-01T07:16:10;1.90;99.90
27896;DHT22;15241;48.374;10.876;2023-03-01T07:21:11;2.20;99.90
27896;DHT22;15241;48.374;10.876;2023-03-01T07:26:10;2.20;99.90
27896;DHT22;15241;48.374;10.876;2023-03-01T07:31:09;2.30;99.90
27896;DHT22;15241;48.374;10.876;2023-03-01T07:36:10;2.30;99.90
27896;DHT22;15241;48.374;10.876;2023-03-01T07:41:09;2.50;99.90
27896;DHT22;15241;48.374;10.876;2023-03-01T07:46:08;2.50;99.90
27896;DHT22;15241;48.374;10.876;2023-03-01T07:51:08;2.70;99.90
27896;DHT22;15241;48.374;10.876;2023-03-01T07:56:09;2.80;99.90
27896;DHT22;15241;48.374;10.876;2023-03-01T08:01:10;2.90;99.90
27896;DHT22;15241;48.374;10.876;2023-03-01T08:06:12;3.20;99.90
27896;DHT22;15241;48.374;10.876;2023-03-01T08:11:12;3.20;99.90
27896;DHT22;15241;48.374;10.876;2023-03-01T08:16:14;3.30;99.90
27896;DHT22;15241;48.374;10.876;2023-03-01T08:21:15;3.50;99.90
27896;DHT22;15241;48.374;10.876;2023-03-01T08:26:16;3.40;99.90
27896;DHT22;15241;48.374;10.876;2023-03-01T08:31:17;3.50;99.90
27896;DHT22;15241;48.374;10.876;2023-03-01T08:36:17;3.60;99.90
27896;DHT22;15241;48.374;10.876;2023-03-01T08:41:17;3.60;99.90
27896;DHT22;15241;48.374;10.876;2023-03-01T08:46:16;3.80;99.90
27896;DHT22;15241;48.374;10.876;2023-03-01T08:51:17;4.00;99.90
27896;DHT22;15241;48.374;10.876;2023-03-01T08:56:17;4.10;99.90
27896;DHT22;15241;48.374;10.876;2023-03-01T09:01:18;4.10;99.90
27896;DHT22;15241;48.374;10.876;2023-03-01T09:06:17;4.30;99.90
27896;DHT22;15241;48.374;10.876;2023-03-01T09:11:21;4.30;99.90
27896;DHT22;15241;48.374;10.876;2023-03-01T09:16:21;4.30;99.90
27896;DHT22;15241;48.374;10.876;2023-03-01T09:21:22;4.70;99.90
27896;DHT22;15241;48.374;10.876;2023-03-01T09:26:22;4.70;99.90
27896;DHT22;15241;48.374;10.876;2023-03-01T09:31:22;5.00;99.90
27896;DHT22;15241;48.374;10.876;2023-03-01T09:36:23;5.10;99.90
27896;DHT22;15241;48.374;10.876;2023-03-01T09:41:33;5.10;99.90
27896;DHT22;15241;48.374;10.876;2023-03-01T09:46:36;5.10;99.90
27896;DHT22;15241;48.374;10.876;2023-03-01T09:51:35;5.50;99.90
27896;DHT22;15241;48.374;10.876;2023-03-01T10:01:48;6.90;99.90
27896;DHT22;15241;48.374;10.876;2023-03-01T10:06:50;7.40;99.90
27896;DHT22;15241;48.374;10.876;2023-03-01T10:12:09;7.90;99.90
27896;DHT22;15241;48.374;10.876;2023-03-01T10:17:12;8.40;99.90
27896;DHT22;15241;48.374;10.876;2023-03-01T10:22:15;9.50;99.20
27896;DHT22;15241;48.374;10.876;2023-03-01T10:27:36;10.10;97.70
27896;DHT22;15241;48.374;10.876;2023-03-01T10:32:36;11.20;96.00
27896;DHT22;15241;48.374;10.876;2023-03-01T10:37:36;12.10;93.80
27896;DHT22;15241;48.374;10.876;2023-03-01T10:42:39;13.10;91.60
27896;DHT22;15241;48.374;10.876;2023-03-01T10:47:38;14.20;89.40
27896;DHT22;15241;48.374;10.876;2023-03-01T10:52:42;15.00;84.50
27896;DHT22;15241;48.374;10.876;2023-03-01T10:57:42;15.80;78.70
27896;DHT22;15241;48.374;10.876;2023-03-01T11:02:46;16.40;74.50
27896;DHT22;15241;48.374;10.876;2023-03-01T11:07:48;17.30;71.90
27896;DHT22;15241;48.374;10.876;2023-03-01T11:12:48;18.20;68.00
27896;DHT22;15241;48.374;10.876;2023-03-01T11:17:48;19.20;63.90
27896;DHT22;15241;48.374;10.876;2023-03-01T11:22:50;20.20;61.30
27896;DHT22;15241;48.374;10.876;2023-03-01T11:27:50;21.40;57.60
27896;DHT22;15241;48.374;10.876;2023-03-01T11:32:55;22.50;53.40
27896;DHT22;15241;48.374;10.876;2023-03-01T11:37:56;24.30;48.10
27896;DHT22;15241;48.374;10.876;2023-03-01T11:43:04;25.20;43.40
27896;DHT22;15241;48.374;10.876;2023-03-01T11:48:24;28.40;39.30
27896;DHT22;15241;48.374;10.876;2023-03-01T11:53:38;29.20;35.40
27896;DHT22;15241;48.374;10.876;2023-03-01T12:04:09;32.50;30.10
27896;DHT22;15241;48.374;10.876;2023-03-01T12:09:17;33.50;28.30
27896;DHT22;15241;48.374;10.876;2023-03-01T12:14:36;34.20;26.90
27896;DHT22;15241;48.374;10.876;2023-03-01T12:30:46;37.60;24.10
27896;DHT22;15241;48.374;10.876;2023-03-01T12:36:01;38.50;23.00
27896;DHT22;15241;48.374;10.876;2023-03-01T12:41:47;38.80;22.70
27896;DHT22;15241;48.374;10.876;2023-03-01T12:46:57;40.20;22.40
27896;DHT22;15241;48.374;10.876;2023-03-01T12:51:59;40.90;21.90
27896;DHT22;15241;48.374;10.876;2023-03-01T13:02:15;40.90;21.20
27896;DHT22;15241;48.374;10.876;2023-03-01T13:07:27;40.90;20.90
27896;DHT22;15241;48.374;10.876;2023-03-01T13:12:49;40.80;21.60
27896;DHT22;15241;48.374;10.876;2023-03-01T13:17:49;40.80;20.80
27896;DHT22;15241;48.374;10.876;2023-03-01T13:22:59;41.50;21.20
27896;DHT22;15241;48.374;10.876;2023-03-01T13:27:57;41.50;20.80
27896;DHT22;15241;48.374;10.876;2023-03-01T13:33:15;41.80;20.60
27896;DHT22;15241;48.374;10.876;2023-03-01T13:38:44;41.90;21.00
27896;DHT22;15241;48.374;10.876;2023-03-01T13:43:41;41.60;21.20
27896;DHT22;15241;48.374;10.876;2023-03-01T13:48:41;41.80;20.60
27896;DHT22;15241;48.374;10.876;2023-03-01T13:53:44;41.60;20.70
27896;DHT22;15241;48.374;10.876;2023-03-01T13:58:49;41.60;20.80
27896;DHT22;15241;48.374;10.876;2023-03-01T14:03:49;40.90;20.80
27896;DHT22;15241;48.374;10.876;2023-03-01T14:08:50;40.80;20.90
27896;DHT22;15241;48.374;10.876;2023-03-01T14:14:01;40.10;21.10
27896;DHT22;15241;48.374;10.876;2023-03-01T14:19:08;40.20;21.40
27896;DHT22;15241;48.374;10.876;2023-03-01T14:24:20;39.80;21.00
27896;DHT22;15241;48.374;10.876;2023-03-01T14:29:27;38.70;21.60
27896;DHT22;15241;48.374;10.876;2023-03-01T14:34:29;38.20;21.30
27896;DHT22;15241;48.374;10.876;2023-03-01T14:39:28;37.40;21.20
27896;DHT22;15241;48.374;10.876;2023-03-01T14:44:28;38.40;21.10
27896;DHT22;15241;48.374;10.876;2023-03-01T14:49:29;38.40;21.50
27896;DHT22;15241;48.374;10.876;2023-03-01T14:54:32;37.60;21.90
27896;DHT22;15241;48.374;10.876;2023-03-01T14:59:33;37.40;21.80
27896;DHT22;15241;48.374;10.876;2023-03-01T15:04:32;36.30;22.20
27896;DHT22;15241;48.374;10.876;2023-03-01T15:09:34;36.10;22.70
27896;DHT22;15241;48.374;10.876;2023-03-01T15:14:42;35.60;23.00
27896;DHT22;15241;48.374;10.876;2023-03-01T15:19:41;35.10;23.30
27896;DHT22;15241;48.374;10.876;2023-03-01T15:24:41;35.20;23.70
27896;DHT22;15241;48.374;10.876;2023-03-01T15:29:43;34.10;23.60
27896;DHT22;15241;48.374;10.876;2023-03-01T15:34:43;33.40;23.90
27896;DHT22;15241;48.374;10.876;2023-03-01T15:39:45;32.20;24.20
27896;DHT22;15241;48.374;10.876;2023-03-01T15:44:44;31.90;25.10
27896;DHT22;15241;48.374;10.876;2023-03-01T15:49:44;31.00;25.60
27896;DHT22;15241;48.374;10.876;2023-03-01T15:54:43;30.00;26.30
27896;DHT22;15241;48.374;10.876;2023-03-01T15:59:42;29.00;27.20
27896;DHT22;15241;48.374;10.876;2023-03-01T16:04:41;27.80;28.20
27896;DHT22;15241;48.374;10.876;2023-03-01T16:09:40;25.50;29.80
27896;DHT22;15241;48.374;10.876;2023-03-01T16:14:39;22.90;33.30
27896;DHT22;15241;48.374;10.876;2023-03-01T16:19:39;20.90;36.50
27896;DHT22;15241;48.374;10.876;2023-03-01T16:24:43;19.20;39.40
27896;DHT22;15241;48.374;10.876;2023-03-01T16:29:42;17.70;42.20
27896;DHT22;15241;48.374;10.876;2023-03-01T16:34:41;16.70;44.80
27896;DHT22;15241;48.374;10.876;2023-03-01T16:39:40;15.70;47.10
27896;DHT22;15241;48.374;10.876;2023-03-01T16:44:39;14.80;48.70
27896;DHT22;15241;48.374;10.876;2023-03-01T16:49:38;13.80;51.50
27896;DHT22;15241;48.374;10.876;2023-03-01T16:54:39;13.00;53.40
27896;DHT22;15241;48.374;10.876;2023-03-01T16:59:37;12.30;54.60
27896;DHT22;15241;48.374;10.876;2023-03-01T17:04:36;11.90;56.70
27896;DHT22;15241;48.374;10.876;2023-03-01T17:09:36;11.50;58.00
27896;DHT22;15241;48.374;10.876;2023-03-01T17:14:35;11.10;59.60
27896;DHT22;15241;48.374;10.876;2023-03-01T17:19:34;10.80;60.70
27896;DHT22;15241;48.374;10.876;2023-03-01T17:24:35;10.60;61.70
27896;DHT22;15241;48.374;10.876;2023-03-01T17:29:34;10.30;62.90
27896;DHT22;15241;48.374;10.876;2023-03-01T17:34:34;10.10;64.40
27896;DHT22;15241;48.374;10.876;2023-03-01T17:39:33;9.70;65.20
27896;DHT22;15241;48.374;10.876;2023-03-01T17:44:32;9.50;66.30
27896;DHT22;15241;48.374;10.876;2023-03-01T17:49:31;9.30;67.80
27896;DHT22;15241;48.374;10.876;2023-03-01T17:54:30;9.10;68.60
27896;DHT22;15241;48.374;10.876;2023-03-01T17:59:29;8.80;69.70
27896;DHT22;15241;48.374;10.876;2023-03-01T18:04:30;8.80;71.10
27896;DHT22;15241;48.374;10.876;2023-03-01T18:09:29;8.70;71.50
27896;DHT22;15241;48.374;10.876;2023-03-01T18:14:28;8.50;72.30
27896;DHT22;15241;48.374;10.876;2023-03-01T18:19:27;8.40;73.40
27896;DHT22;15241;48.374;10.876;2023-03-01T18:24:26;8.30;74.20
27896;DHT22;15241;48.374;10.876;2023-03-01T18:29:25;8.20;74.70
27896;DHT22;15241;48.374;10.876;2023-03-01T18:34:25;8.00;76.00
27896;DHT22;15241;48.374;10.876;2023-03-01T18:39:24;7.80;77.00
27896;DHT22;15241;48.374;10.876;2023-03-01T18:44:23;7.70;78.10
27896;DHT22;15241;48.374;10.876;2023-03-01T18:49:22;7.50;79.40
27896;DHT22;15241;48.374;10.876;2023-03-01T18:54:22;7.40;80.70
27896;DHT22;15241;48.374;10.876;2023-03-01T18:59:20;7.20;82.30
27896;DHT22;15241;48.374;10.876;2023-03-01T19:04:19;7.00;83.40
27896;DHT22;15241;48.374;10.876;2023-03-01T19:09:18;7.00;84.50
27896;DHT22;15241;48.374;10.876;2023-03-01T19:14:17;6.80;85.40
27896;DHT22;15241;48.374;10.876;2023-03-01T19:19:16;6.70;86.70
27896;DHT22;15241;48.374;10.876;2023-03-01T19:24:15;6.60;87.80
27896;DHT22;15241;48.374;10.876;2023-03-01T19:29:14;6.50;90.10
27896;DHT22;15241;48.374;10.876;2023-03-01T19:34:14;6.40;90.40
27896;DHT22;15241;48.374;10.876;2023-03-01T19:39:13;6.30;90.80
27896;DHT22;15241;48.374;10.876;2023-03-01T19:44:12;6.20;91.60
27896;DHT22;15241;48.374;10.876;2023-03-01T19:49:11;6.00;92.50
27896;DHT22;15241;48.374;10.876;2023-03-01T19:54:10;6.00;93.00
27896;DHT22;15241;48.374;10.876;2023-03-01T19:59:09;5.90;93.90
27896;DHT22;15241;48.374;10.876;2023-03-01T20:04:09;5.80;94.80
27896;DHT22;15241;48.374;10.876;2023-03-01T20:09:08;5.70;95.40
27896;DHT22;15241;48.374;10.876;2023-03-01T20:14:07;5.70;95.80
27896;DHT22;15241;48.374;10.876;2023-03-01T20:19:06;5.60;96.80
27896;DHT22;15241;48.374;10.876;2023-03-01T20:24:07;5.60;97.40
27896;DHT22;15241;48.374;10.876;2023-03-01T20:29:09;5.60;97.90
27896;DHT22;15241;48.374;10.876;2023-03-01T20:34:08;5.50;98.30
27896;DHT22;15241;48.374;10.876;2023-03-01T20:39:08;5.40;99.30
27896;DHT22;15241;48.374;10.876;2023-03-01T20:44:07;5.30;99.90
27896;DHT22;15241;48.374;10.876;2023-03-01T20:49:06;5.30;99.90
27896;DHT22;15241;48.374;10.876;2023-03-01T20:54:05;5.30;99.90
27896;DHT22;15241;48.374;10.876;2023-03-01T20:59:04;5.20;99.90
27896;DHT22;15241;48.374;10.876;2023-03-01T21:04:04;5.20;99.90
27896;DHT22;15241;48.374;10.876;2023-03-01T21:09:03;5.10;99.90
27896;DHT22;15241;48.374;10.876;2023-03-01T21:14:02;5.10;99.90
27896;DHT22;15241;48.374;10.876;2023-03-01T21:19:01;5.10;99.90
27896;DHT22;15241;48.374;10.876;2023-03-01T21:24:00;5.00;99.90
27896;DHT22;15241;48.374;10.876;2023-03-01T21:29:00;5.00;99.90
27896;DHT22;15241;48.374;10.876;2023-03-01T21:34:01;5.00;99.90
27896;DHT22;15241;48.374;10.876;2023-03-01T21:39:01;5.00;99.90
27896;DHT22;15241;48.374;10.876;2023-03-01T21:44:02;5.00;99.90
27896;DHT22;15241;48.374;10.876;2023-03-01T21:54:14;4.90;99.90
27896;DHT22;15241;48.374;10.876;2023-03-01T21:59:16;4.90;99.90
27896;DHT22;15241;48.374;10.876;2023-03-01T22:04:16;4.80;99.90
27896;DHT22;15241;48.374;10.876;2023-03-01T22:09:17;4.80;99.90
27896;DHT22;15241;48.374;10.876;2023-03-01T22:14:17;4.70;99.90
27896;DHT22;15241;48.374;10.876;2023-03-01T22:19:16;4.70;99.90
27896;DHT22;15241;48.374;10.876;2023-03-01T22:24:17;4.60;99.90
27896;DHT22;15241;48.374;10.876;2023-03-01T22:29:20;4.50;99.90
27896;DHT22;15241;48.374;10.876;2023-03-01T22:34:18;4.50;99.90
27896;DHT22;15241;48.374;10.876;2023-03-01T22:39:19;4.50;99.90
27896;DHT22;15241;48.374;10.876;2023-03-01T22:44:20;4.40;99.90
27896;DHT22;15241;48.374;10.876;2023-03-01T22:49:19;4.40;99.90
27896;DHT22;15241;48.374;10.876;2023-03-01T22:54:19;4.40;99.90
27896;DHT22;15241;48.374;10.876;2023-03-01T23:04:27;4.20;99.90
27896;DHT22;15241;48.374;10.876;2023-03-01T23:09:28;4.30;99.90
27896;DHT22;15241;48.374;10.876;2023-03-01T23:14:30;4.30;99.90
27896;DHT22;15241;48.374;10.876;2023-03-01T23:19:33;4.20;99.90
27896;DHT22;15241;48.374;10.876;2023-03-01T23:24:30;4.10;99.90
27896;DHT22;15241;48.374;10.876;2023-03-01T23:34:48;4.00;99.90
27896;DHT22;15241;48.374;10.876;2023-03-01T23:39:47;3.90;99.90
27896;DHT22;15241;48.374;10.876;2023-03-01T23:44:50;3.80;99.90
27896;DHT22;15241;48.374;10.876;2023-03-01T23:49:50;3.80;99.90
27896;DHT22;15241;48.374;10.876;2023-03-01T23:54:49;3.70;99.90
27896;DHT22;15241;48.374;10.876;2023-03-01T23:59:48;3.70;99.90
